sensor_id;sensor_type;location;lat;lon;timestamp;pressure;altitude;pressure_sealevel;temperature;humidity
39411;BME280;26579;43.238;23.124;2023-06-22T00:00:59;97293.59;;;22.70;68.11
39411;BME280;26579;43.238;23.124;2023-06-22T00:03:25;97281.47;;;22.60;68.26
39411;BME280;26579;43.238;23.124;2023-06-22T00:05:51;97296.81;;;22.65;68.38
39411;BME280;26579;43.238;23.124;2023-06-22T00:08:18;97282.47;;;22.59;68.37
39411;BME280;26579;43.238;23.124;2023-06-22T00:10:44;97297.59;;;22.59;68.64
39411;BME280;26579;43.238;23.124;2023-06-22T00:13:12;97304.09;;;22.56;68.80
39411;BME280;26579;43.238;23.124;2023-06-22T00:15:39;97287.09;;;22.51;69.04
39411;BME280;26579;43.238;23.124;2023-06-22T00:18:09;97294.69;;;22.54;68.70
39411;BME280;26579;43.238;23.124;2023-06-22T00:20:35;97289.38;;;22.54;68.63
39411;BME280;26579;43.238;23.124;2023-06-22T00:23:01;97289.63;;;22.59;68.29
39411;BME280;26579;43.238;23.124;2023-06-22T00:25:27;97299.66;;;22.64;68.79
39411;BME280;26579;43.238;23.124;2023-06-22T00:27:52;97301.50;;;22.63;68.59
39411;BME280;26579;43.238;23.124;2023-06-22T00:30:19;97289.06;;;22.64;68.38
39411;BME280;26579;43.238;23.124;2023-06-22T00:32:45;97297.63;;;22.66;68.47
39411;BME280;26579;43.238;23.124;2023-06-22T00:35:12;97306.84;;;22.70;68.47
39411;BME280;26579;43.238;23.124;2023-06-22T00:37:39;97314.38;;;22.66;68.72
39411;BME280;26579;43.238;23.124;2023-06-22T00:40:05;97313.31;;;22.60;68.96
39411;BME280;26579;43.238;23.124;2023-06-22T00:42:31;97315.75;;;22.62;69.21
39411;BME280;26579;43.238;23.124;2023-06-22T00:44:56;97305.75;;;22.57;69.19
39411;BME280;26579;43.238;23.124;2023-06-22T00:47:23;97326.50;;;22.54;69.82
39411;BME280;26579;43.238;23.124;2023-06-22T00:49:49;97316.94;;;22.53;69.78
39411;BME280;26579;43.238;23.124;2023-06-22T00:52:15;97304.38;;;22.40;70.15
39411;BME280;26579;43.238;23.124;2023-06-22T00:54:41;97314.44;;;22.51;70.26
39411;BME280;26579;43.238;23.124;2023-06-22T00:57:07;97311.38;;;22.48;70.48
39411;BME280;26579;43.238;23.124;2023-06-22T00:59:32;97293.81;;;22.47;70.26
39411;BME280;26579;43.238;23.124;2023-06-22T01:01:58;97304.91;;;22.57;69.92
39411;BME280;26579;43.238;23.124;2023-06-22T01:04:34;97307.13;;;22.53;70.13
39411;BME280;26579;43.238;23.124;2023-06-22T01:09:51;97295.28;;;22.49;69.94
39411;BME280;26579;43.238;23.124;2023-06-22T01:12:19;97289.31;;;22.47;70.04
39411;BME280;26579;43.238;23.124;2023-06-22T01:14:56;97297.50;;;22.46;70.44
39411;BME280;26579;43.238;23.124;2023-06-22T01:17:26;97296.84;;;22.44;70.36
39411;BME280;26579;43.238;23.124;2023-06-22T01:19:55;97300.28;;;22.37;70.41
39411;BME280;26579;43.238;23.124;2023-06-22T01:22:27;97316.25;;;22.44;70.56
39411;BME280;26579;43.238;23.124;2023-06-22T01:30:02;97324.75;;;22.40;70.86
39411;BME280;26579;43.238;23.124;2023-06-22T01:32:32;97339.69;;;22.41;71.01
39411;BME280;26579;43.238;23.124;2023-06-22T01:35:00;97334.56;;;22.39;70.93
39411;BME280;26579;43.238;23.124;2023-06-22T01:37:28;97337.78;;;22.34;71.54
39411;BME280;26579;43.238;23.124;2023-06-22T01:39:55;97336.94;;;22.34;71.65
39411;BME280;26579;43.238;23.124;2023-06-22T01:42:24;97326.13;;;22.29;71.80
39411;BME280;26579;43.238;23.124;2023-06-22T01:44:50;97327.75;;;22.30;71.72
39411;BME280;26579;43.238;23.124;2023-06-22T01:47:17;97337.22;;;22.39;71.33
39411;BME280;26579;43.238;23.124;2023-06-22T01:49:43;97330.06;;;22.40;70.81
39411;BME280;26579;43.238;23.124;2023-06-22T01:52:09;97330.53;;;22.43;70.76
39411;BME280;26579;43.238;23.124;2023-06-22T01:54:34;97342.38;;;22.47;71.09
39411;BME280;26579;43.238;23.124;2023-06-22T01:57:00;97329.25;;;22.39;71.40
39411;BME280;26579;43.238;23.124;2023-06-22T01:59:32;97332.34;;;22.43;71.31
39411;BME280;26579;43.238;23.124;2023-06-22T02:02:10;97323.13;;;22.38;71.47
39411;BME280;26579;43.238;23.124;2023-06-22T02:04:47;97317.00;;;22.38;71.77
39411;BME280;26579;43.238;23.124;2023-06-22T02:07:15;97312.47;;;22.32;71.86
39411;BME280;26579;43.238;23.124;2023-06-22T02:09:44;97328.38;;;22.32;72.16
39411;BME280;26579;43.238;23.124;2023-06-22T02:12:12;97327.38;;;22.33;71.89
39411;BME280;26579;43.238;23.124;2023-06-22T02:14:39;97324.06;;;22.31;72.36
39411;BME280;26579;43.238;23.124;2023-06-22T02:17:08;97329.97;;;22.26;72.66
39411;BME280;26579;43.238;23.124;2023-06-22T02:19:42;97322.13;;;22.18;72.60
39411;BME280;26579;43.238;23.124;2023-06-22T02:22:08;97341.22;;;22.13;73.21
39411;BME280;26579;43.238;23.124;2023-06-22T02:24:33;97337.94;;;22.11;73.52
39411;BME280;26579;43.238;23.124;2023-06-22T02:27:00;97338.94;;;22.10;73.46
39411;BME280;26579;43.238;23.124;2023-06-22T02:29:26;97336.13;;;22.12;73.36
39411;BME280;26579;43.238;23.124;2023-06-22T02:31:52;97344.38;;;22.17;73.10
39411;BME280;26579;43.238;23.124;2023-06-22T02:34:19;97332.91;;;22.17;72.69
39411;BME280;26579;43.238;23.124;2023-06-22T02:36:46;97337.03;;;22.19;72.93
39411;BME280;26579;43.238;23.124;2023-06-22T02:39:11;97343.78;;;22.22;72.64
39411;BME280;26579;43.238;23.124;2023-06-22T02:41:37;97347.63;;;22.19;72.65
39411;BME280;26579;43.238;23.124;2023-06-22T02:44:03;97344.25;;;22.10;72.75
39411;BME280;26579;43.238;23.124;2023-06-22T02:46:28;97350.19;;;22.12;72.98
39411;BME280;26579;43.238;23.124;2023-06-22T02:48:54;97359.91;;;22.20;72.88
39411;BME280;26579;43.238;23.124;2023-06-22T02:51:20;97350.13;;;22.06;73.15
39411;BME280;26579;43.238;23.124;2023-06-22T02:53:45;97372.25;;;21.98;73.72
39411;BME280;26579;43.238;23.124;2023-06-22T02:56:13;97364.75;;;22.02;73.80
39411;BME280;26579;43.238;23.124;2023-06-22T02:58:39;97351.00;;;21.91;73.91
39411;BME280;26579;43.238;23.124;2023-06-22T03:01:07;97364.50;;;21.97;73.94
39411;BME280;26579;43.238;23.124;2023-06-22T03:03:35;97368.41;;;22.01;73.82
39411;BME280;26579;43.238;23.124;2023-06-22T03:06:00;97351.06;;;21.98;73.53
39411;BME280;26579;43.238;23.124;2023-06-22T03:08:27;97362.47;;;21.99;73.51
39411;BME280;26579;43.238;23.124;2023-06-22T03:10:53;97377.47;;;22.06;73.46
39411;BME280;26579;43.238;23.124;2023-06-22T03:13:19;97373.94;;;21.99;73.73
39411;BME280;26579;43.238;23.124;2023-06-22T03:15:45;97370.19;;;21.93;73.81
39411;BME280;26579;43.238;23.124;2023-06-22T03:18:11;97378.22;;;22.00;73.84
39411;BME280;26579;43.238;23.124;2023-06-22T03:20:36;97374.91;;;21.98;73.81
39411;BME280;26579;43.238;23.124;2023-06-22T03:23:02;97381.75;;;22.07;73.37
39411;BME280;26579;43.238;23.124;2023-06-22T03:25:28;97386.88;;;22.09;73.61
39411;BME280;26579;43.238;23.124;2023-06-22T03:27:54;97367.78;;;21.99;73.14
39411;BME280;26579;43.238;23.124;2023-06-22T03:30:21;97386.16;;;22.00;73.88
39411;BME280;26579;43.238;23.124;2023-06-22T03:32:47;97388.59;;;22.02;73.70
39411;BME280;26579;43.238;23.124;2023-06-22T03:35:13;97384.31;;;22.01;73.58
39411;BME280;26579;43.238;23.124;2023-06-22T03:37:38;97368.91;;;21.89;74.05
39411;BME280;26579;43.238;23.124;2023-06-22T03:40:05;97380.84;;;22.00;73.69
39411;BME280;26579;43.238;23.124;2023-06-22T03:42:31;97382.88;;;21.98;73.42
39411;BME280;26579;43.238;23.124;2023-06-22T03:44:57;97372.91;;;22.00;73.90
39411;BME280;26579;43.238;23.124;2023-06-22T03:47:22;97358.38;;;21.96;73.49
39411;BME280;26579;43.238;23.124;2023-06-22T03:49:48;97376.91;;;22.11;73.09
39411;BME280;26579;43.238;23.124;2023-06-22T03:52:14;97366.09;;;22.12;73.20
39411;BME280;26579;43.238;23.124;2023-06-22T03:54:39;97354.63;;;22.05;73.77
39411;BME280;26579;43.238;23.124;2023-06-22T03:57:05;97368.09;;;22.10;73.72
39411;BME280;26579;43.238;23.124;2023-06-22T03:59:31;97353.41;;;22.08;73.88
39411;BME280;26579;43.238;23.124;2023-06-22T04:01:56;97347.66;;;22.04;74.07
39411;BME280;26579;43.238;23.124;2023-06-22T04:04:22;97349.81;;;22.15;74.21
39411;BME280;26579;43.238;23.124;2023-06-22T04:06:48;97344.72;;;22.14;73.87
39411;BME280;26579;43.238;23.124;2023-06-22T04:09:13;97357.69;;;22.24;74.33
39411;BME280;26579;43.238;23.124;2023-06-22T04:11:39;97353.47;;;22.14;74.11
39411;BME280;26579;43.238;23.124;2023-06-22T04:14:05;97350.38;;;22.26;73.90
39411;BME280;26579;43.238;23.124;2023-06-22T04:16:30;97349.97;;;22.29;74.33
39411;BME280;26579;43.238;23.124;2023-06-22T04:18:56;97336.28;;;22.25;74.51
39411;BME280;26579;43.238;23.124;2023-06-22T04:21:21;97351.75;;;22.43;74.09
39411;BME280;26579;43.238;23.124;2023-06-22T04:23:47;97354.25;;;22.51;73.77
39411;BME280;26579;43.238;23.124;2023-06-22T04:26:13;97346.66;;;22.48;74.67
39411;BME280;26579;43.238;23.124;2023-06-22T04:28:40;97346.53;;;22.56;74.42
39411;BME280;26579;43.238;23.124;2023-06-22T04:31:05;97359.94;;;22.70;74.29
39411;BME280;26579;43.238;23.124;2023-06-22T04:33:31;97347.25;;;22.72;74.46
39411;BME280;26579;43.238;23.124;2023-06-22T04:35:57;97334.63;;;22.74;74.27
39411;BME280;26579;43.238;23.124;2023-06-22T04:38:24;97342.22;;;22.77;74.13
39411;BME280;26579;43.238;23.124;2023-06-22T04:40:50;97362.53;;;22.91;74.83
39411;BME280;26579;43.238;23.124;2023-06-22T04:43:16;97351.72;;;22.93;74.76
39411;BME280;26579;43.238;23.124;2023-06-22T04:45:42;97360.25;;;23.10;74.55
39411;BME280;26579;43.238;23.124;2023-06-22T04:48:07;97358.03;;;23.13;74.37
39411;BME280;26579;43.238;23.124;2023-06-22T04:50:33;97368.28;;;23.23;74.67
39411;BME280;26579;43.238;23.124;2023-06-22T04:52:59;97375.72;;;23.34;74.24
39411;BME280;26579;43.238;23.124;2023-06-22T04:55:24;97372.91;;;23.42;74.63
39411;BME280;26579;43.238;23.124;2023-06-22T04:57:50;97373.75;;;23.49;74.84
39411;BME280;26579;43.238;23.124;2023-06-22T05:00:19;97366.81;;;23.55;74.21
39411;BME280;26579;43.238;23.124;2023-06-22T05:02:46;97385.03;;;23.65;74.38
39411;BME280;26579;43.238;23.124;2023-06-22T05:05:13;97387.41;;;23.81;73.50
39411;BME280;26579;43.238;23.124;2023-06-22T05:07:45;97378.03;;;23.85;73.58
39411;BME280;26579;43.238;23.124;2023-06-22T05:10:12;97384.81;;;24.01;73.72
39411;BME280;26579;43.238;23.124;2023-06-22T05:12:38;97381.56;;;24.06;73.83
39411;BME280;26579;43.238;23.124;2023-06-22T05:15:05;97372.97;;;24.04;73.66
39411;BME280;26579;43.238;23.124;2023-06-22T05:17:31;97397.78;;;24.24;74.16
39411;BME280;26579;43.238;23.124;2023-06-22T05:19:56;97381.41;;;24.27;73.16
39411;BME280;26579;43.238;23.124;2023-06-22T05:22:22;97399.44;;;24.38;72.41
39411;BME280;26579;43.238;23.124;2023-06-22T05:24:48;97398.84;;;24.43;71.89
39411;BME280;26579;43.238;23.124;2023-06-22T05:27:14;97394.56;;;24.49;72.01
39411;BME280;26579;43.238;23.124;2023-06-22T05:29:40;97393.16;;;24.53;71.54
39411;BME280;26579;43.238;23.124;2023-06-22T05:32:06;97391.94;;;24.55;71.39
39411;BME280;26579;43.238;23.124;2023-06-22T05:34:32;97400.53;;;24.64;72.11
39411;BME280;26579;43.238;23.124;2023-06-22T05:36:58;97396.63;;;24.67;72.45
39411;BME280;26579;43.238;23.124;2023-06-22T05:39:23;97390.50;;;24.66;73.24
39411;BME280;26579;43.238;23.124;2023-06-22T05:41:49;97400.31;;;24.72;74.79
39411;BME280;26579;43.238;23.124;2023-06-22T05:44:15;97397.66;;;24.72;75.18
39411;BME280;26579;43.238;23.124;2023-06-22T05:46:42;97411.59;;;24.74;76.28
39411;BME280;26579;43.238;23.124;2023-06-22T05:49:08;97417.53;;;24.76;77.43
39411;BME280;26579;43.238;23.124;2023-06-22T05:51:33;97405.25;;;24.75;78.84
39411;BME280;26579;43.238;23.124;2023-06-22T05:53:59;97404.00;;;24.78;78.05
39411;BME280;26579;43.238;23.124;2023-06-22T05:56:25;97393.38;;;24.84;76.38
39411;BME280;26579;43.238;23.124;2023-06-22T05:58:50;97412.81;;;24.92;76.52
39411;BME280;26579;43.238;23.124;2023-06-22T06:01:16;97404.84;;;24.92;77.43
39411;BME280;26579;43.238;23.124;2023-06-22T06:03:42;97408.13;;;25.00;78.10
39411;BME280;26579;43.238;23.124;2023-06-22T06:06:07;97402.19;;;25.05;76.32
39411;BME280;26579;43.238;23.124;2023-06-22T06:08:33;97396.00;;;25.04;76.49
39411;BME280;26579;43.238;23.124;2023-06-22T06:10:59;97401.78;;;25.15;75.98
39411;BME280;26579;43.238;23.124;2023-06-22T06:13:24;97376.13;;;25.07;76.12
39411;BME280;26579;43.238;23.124;2023-06-22T06:15:50;97397.47;;;25.20;75.87
39411;BME280;26579;43.238;23.124;2023-06-22T06:18:16;97393.34;;;25.24;71.90
39411;BME280;26579;43.238;23.124;2023-06-22T06:20:41;97384.78;;;25.22;70.93
39411;BME280;26579;43.238;23.124;2023-06-22T06:23:07;97397.47;;;25.27;73.65
39411;BME280;26579;43.238;23.124;2023-06-22T06:25:33;97401.78;;;25.28;74.42
39411;BME280;26579;43.238;23.124;2023-06-22T06:27:59;97414.03;;;25.42;72.14
39411;BME280;26579;43.238;23.124;2023-06-22T06:30:25;97417.13;;;25.46;73.06
39411;BME280;26579;43.238;23.124;2023-06-22T06:32:51;97411.75;;;25.52;74.81
39411;BME280;26579;43.238;23.124;2023-06-22T06:35:17;97405.78;;;25.64;75.04
39411;BME280;26579;43.238;23.124;2023-06-22T06:37:48;97414.41;;;25.66;63.82
39411;BME280;26579;43.238;23.124;2023-06-22T06:40:16;97417.84;;;25.73;62.50
39411;BME280;26579;43.238;23.124;2023-06-22T06:42:47;97415.78;;;25.82;62.01
39411;BME280;26579;43.238;23.124;2023-06-22T06:45:19;97413.53;;;25.79;65.41
39411;BME280;26579;43.238;23.124;2023-06-22T06:47:45;97403.69;;;25.72;64.89
39411;BME280;26579;43.238;23.124;2023-06-22T06:50:12;97408.22;;;25.72;69.80
39411;BME280;26579;43.238;23.124;2023-06-22T06:52:38;97402.25;;;25.83;70.43
39411;BME280;26579;43.238;23.124;2023-06-22T06:55:04;97408.50;;;26.09;66.48
39411;BME280;26579;43.238;23.124;2023-06-22T06:57:30;97402.06;;;26.23;66.60
39411;BME280;26579;43.238;23.124;2023-06-22T06:59:56;97407.97;;;26.32;67.09
39411;BME280;26579;43.238;23.124;2023-06-22T07:02:23;97409.78;;;26.38;67.26
39411;BME280;26579;43.238;23.124;2023-06-22T07:04:49;97406.84;;;26.46;68.95
39411;BME280;26579;43.238;23.124;2023-06-22T07:07:15;97404.59;;;26.50;67.43
39411;BME280;26579;43.238;23.124;2023-06-22T07:09:41;97403.53;;;26.57;65.65
39411;BME280;26579;43.238;23.124;2023-06-22T07:12:07;97409.72;;;26.51;64.10
39411;BME280;26579;43.238;23.124;2023-06-22T07:14:32;97402.75;;;26.50;62.69
39411;BME280;26579;43.238;23.124;2023-06-22T07:16:58;97394.53;;;26.52;62.35
39411;BME280;26579;43.238;23.124;2023-06-22T07:19:25;97400.66;;;26.59;61.79
39411;BME280;26579;43.238;23.124;2023-06-22T07:21:51;97389.19;;;26.52;60.36
39411;BME280;26579;43.238;23.124;2023-06-22T07:24:17;97392.69;;;26.46;60.17
39411;BME280;26579;43.238;23.124;2023-06-22T07:26:46;97408.47;;;26.54;61.41
39411;BME280;26579;43.238;23.124;2023-06-22T07:29:12;97406.38;;;26.62;63.49
39411;BME280;26579;43.238;23.124;2023-06-22T07:31:38;97404.81;;;26.73;63.04
39411;BME280;26579;43.238;23.124;2023-06-22T07:34:03;97413.19;;;26.83;61.64
39411;BME280;26579;43.238;23.124;2023-06-22T07:36:29;97405.78;;;26.85;64.48
39411;BME280;26579;43.238;23.124;2023-06-22T07:38:55;97408.84;;;26.89;60.66
39411;BME280;26579;43.238;23.124;2023-06-22T07:41:21;97416.31;;;27.05;60.64
39411;BME280;26579;43.238;23.124;2023-06-22T07:43:46;97413.03;;;27.03;59.49
39411;BME280;26579;43.238;23.124;2023-06-22T07:46:12;97403.75;;;27.06;59.47
39411;BME280;26579;43.238;23.124;2023-06-22T07:48:38;97415.16;;;27.20;60.87
39411;BME280;26579;43.238;23.124;2023-06-22T07:51:03;97415.41;;;27.18;56.33
39411;BME280;26579;43.238;23.124;2023-06-22T07:53:29;97418.16;;;27.30;59.06
39411;BME280;26579;43.238;23.124;2023-06-22T07:55:55;97414.16;;;27.39;57.70
39411;BME280;26579;43.238;23.124;2023-06-22T07:58:20;97400.50;;;27.29;53.06
39411;BME280;26579;43.238;23.124;2023-06-22T08:00:46;97402.28;;;27.35;56.64
39411;BME280;26579;43.238;23.124;2023-06-22T08:03:12;97394.56;;;27.45;58.65
39411;BME280;26579;43.238;23.124;2023-06-22T08:05:38;97403.53;;;27.51;53.76
39411;BME280;26579;43.238;23.124;2023-06-22T08:08:03;97399.53;;;27.60;53.45
39411;BME280;26579;43.238;23.124;2023-06-22T08:10:29;97393.53;;;27.65;53.36
39411;BME280;26579;43.238;23.124;2023-06-22T08:12:55;97386.91;;;27.67;51.89
39411;BME280;26579;43.238;23.124;2023-06-22T08:15:20;97396.00;;;27.85;54.34
39411;BME280;26579;43.238;23.124;2023-06-22T08:17:46;97381.38;;;27.87;52.61
39411;BME280;26579;43.238;23.124;2023-06-22T08:20:12;97396.78;;;28.04;53.25
39411;BME280;26579;43.238;23.124;2023-06-22T08:22:38;97391.56;;;28.09;49.22
39411;BME280;26579;43.238;23.124;2023-06-22T08:25:04;97402.06;;;28.10;50.75
39411;BME280;26579;43.238;23.124;2023-06-22T08:27:30;97395.81;;;28.16;52.82
39411;BME280;26579;43.238;23.124;2023-06-22T08:29:56;97396.06;;;28.27;51.13
39411;BME280;26579;43.238;23.124;2023-06-22T08:32:22;97396.41;;;28.30;52.68
39411;BME280;26579;43.238;23.124;2023-06-22T08:34:47;97394.13;;;28.34;52.27
39411;BME280;26579;43.238;23.124;2023-06-22T08:37:13;97401.97;;;28.47;54.26
39411;BME280;26579;43.238;23.124;2023-06-22T08:39:39;97406.38;;;28.41;51.74
39411;BME280;26579;43.238;23.124;2023-06-22T08:42:05;97401.63;;;28.43;52.35
39411;BME280;26579;43.238;23.124;2023-06-22T08:44:30;97404.91;;;28.46;53.07
39411;BME280;26579;43.238;23.124;2023-06-22T08:46:56;97409.53;;;28.50;51.94
39411;BME280;26579;43.238;23.124;2023-06-22T08:49:22;97405.94;;;28.56;52.65
39411;BME280;26579;43.238;23.124;2023-06-22T08:51:47;97402.50;;;28.67;52.51
39411;BME280;26579;43.238;23.124;2023-06-22T08:54:13;97400.75;;;28.73;53.00
39411;BME280;26579;43.238;23.124;2023-06-22T08:56:39;97382.34;;;28.77;52.52
39411;BME280;26579;43.238;23.124;2023-06-22T08:59:04;97398.34;;;28.83;50.54
39411;BME280;26579;43.238;23.124;2023-06-22T09:01:30;97386.56;;;28.84;50.61
39411;BME280;26579;43.238;23.124;2023-06-22T09:03:56;97372.00;;;28.69;51.37
39411;BME280;26579;43.238;23.124;2023-06-22T09:06:21;97383.88;;;28.84;51.47
39411;BME280;26579;43.238;23.124;2023-06-22T09:08:47;97372.00;;;28.92;51.32
39411;BME280;26579;43.238;23.124;2023-06-22T09:11:13;97366.31;;;29.00;50.82
39411;BME280;26579;43.238;23.124;2023-06-22T09:13:39;97377.63;;;29.14;50.31
39411;BME280;26579;43.238;23.124;2023-06-22T09:16:04;97374.84;;;29.21;50.40
39411;BME280;26579;43.238;23.124;2023-06-22T09:18:30;97376.00;;;29.25;49.73
39411;BME280;26579;43.238;23.124;2023-06-22T09:20:56;97371.09;;;29.33;52.00
39411;BME280;26579;43.238;23.124;2023-06-22T09:23:22;97375.50;;;29.40;49.13
39411;BME280;26579;43.238;23.124;2023-06-22T09:25:47;97361.88;;;29.41;49.80
39411;BME280;26579;43.238;23.124;2023-06-22T09:28:14;97358.47;;;29.46;50.32
39411;BME280;26579;43.238;23.124;2023-06-22T09:30:40;97370.59;;;29.48;48.98
39411;BME280;26579;43.238;23.124;2023-06-22T09:33:05;97353.81;;;29.53;51.63
39411;BME280;26579;43.238;23.124;2023-06-22T09:35:31;97375.94;;;29.72;48.68
39411;BME280;26579;43.238;23.124;2023-06-22T09:37:57;97371.63;;;29.83;49.85
39411;BME280;26579;43.238;23.124;2023-06-22T09:40:22;97372.38;;;29.95;48.82
39411;BME280;26579;43.238;23.124;2023-06-22T09:42:48;97373.28;;;30.00;47.73
39411;BME280;26579;43.238;23.124;2023-06-22T09:45:14;97377.59;;;30.01;49.21
39411;BME280;26579;43.238;23.124;2023-06-22T09:47:39;97372.81;;;30.04;48.19
39411;BME280;26579;43.238;23.124;2023-06-22T09:50:05;97366.88;;;30.01;48.77
39411;BME280;26579;43.238;23.124;2023-06-22T09:52:31;97383.75;;;30.14;46.95
39411;BME280;26579;43.238;23.124;2023-06-22T09:54:57;97380.66;;;30.05;46.98
39411;BME280;26579;43.238;23.124;2023-06-22T09:57:23;97374.97;;;30.18;47.95
39411;BME280;26579;43.238;23.124;2023-06-22T09:59:48;97373.56;;;30.16;47.67
39411;BME280;26579;43.238;23.124;2023-06-22T10:02:14;97363.56;;;30.11;47.90
39411;BME280;26579;43.238;23.124;2023-06-22T10:04:40;97375.13;;;30.12;48.05
39411;BME280;26579;43.238;23.124;2023-06-22T10:07:05;97364.31;;;29.95;48.06
39411;BME280;26579;43.238;23.124;2023-06-22T10:09:31;97372.47;;;30.00;50.36
39411;BME280;26579;43.238;23.124;2023-06-22T10:11:57;97366.16;;;30.06;47.48
39411;BME280;26579;43.238;23.124;2023-06-22T10:14:23;97374.88;;;30.13;49.33
39411;BME280;26579;43.238;23.124;2023-06-22T10:16:48;97376.22;;;29.99;47.35
39411;BME280;26579;43.238;23.124;2023-06-22T10:19:14;97367.88;;;29.84;47.82
39411;BME280;26579;43.238;23.124;2023-06-22T10:21:40;97374.47;;;29.64;48.58
39411;BME280;26579;43.238;23.124;2023-06-22T10:24:05;97374.00;;;29.67;49.16
39411;BME280;26579;43.238;23.124;2023-06-22T10:26:32;97378.53;;;29.67;51.55
39411;BME280;26579;43.238;23.124;2023-06-22T10:28:59;97386.47;;;29.73;50.16
39411;BME280;26579;43.238;23.124;2023-06-22T10:31:24;97369.78;;;29.60;47.35
39411;BME280;26579;43.238;23.124;2023-06-22T10:33:50;97383.19;;;29.71;49.00
39411;BME280;26579;43.238;23.124;2023-06-22T10:36:16;97389.38;;;29.72;47.84
39411;BME280;26579;43.238;23.124;2023-06-22T10:38:41;97374.88;;;29.73;47.47
39411;BME280;26579;43.238;23.124;2023-06-22T10:41:07;97382.94;;;29.73;47.47
39411;BME280;26579;43.238;23.124;2023-06-22T10:43:33;97389.16;;;29.73;46.95
39411;BME280;26579;43.238;23.124;2023-06-22T10:45:58;97387.72;;;29.83;47.95
39411;BME280;26579;43.238;23.124;2023-06-22T10:48:24;97387.41;;;29.96;49.46
39411;BME280;26579;43.238;23.124;2023-06-22T10:50:50;97375.16;;;30.00;44.22
39411;BME280;26579;43.238;23.124;2023-06-22T10:53:15;97387.84;;;30.05;44.83
39411;BME280;26579;43.238;23.124;2023-06-22T10:55:41;97387.59;;;30.18;45.87
39411;BME280;26579;43.238;23.124;2023-06-22T10:58:07;97384.28;;;30.28;44.25
39411;BME280;26579;43.238;23.124;2023-06-22T11:00:33;97383.09;;;30.35;44.13
39411;BME280;26579;43.238;23.124;2023-06-22T11:02:58;97389.84;;;30.38;41.94
39411;BME280;26579;43.238;23.124;2023-06-22T11:05:24;97396.25;;;30.37;42.49
39411;BME280;26579;43.238;23.124;2023-06-22T11:07:50;97388.09;;;30.43;45.32
39411;BME280;26579;43.238;23.124;2023-06-22T11:10:16;97388.72;;;30.51;46.27
39411;BME280;26579;43.238;23.124;2023-06-22T11:12:41;97395.97;;;30.50;44.60
39411;BME280;26579;43.238;23.124;2023-06-22T11:15:08;97401.84;;;30.47;43.24
39411;BME280;26579;43.238;23.124;2023-06-22T11:17:34;97395.50;;;30.53;42.25
39411;BME280;26579;43.238;23.124;2023-06-22T11:20:01;97399.63;;;30.44;42.92
39411;BME280;26579;43.238;23.124;2023-06-22T11:22:27;97412.09;;;30.50;44.17
39411;BME280;26579;43.238;23.124;2023-06-22T11:24:52;97407.78;;;30.66;43.68
39411;BME280;26579;43.238;23.124;2023-06-22T11:27:18;97401.47;;;30.72;43.53
39411;BME280;26579;43.238;23.124;2023-06-22T11:29:44;97405.09;;;30.49;43.00
39411;BME280;26579;43.238;23.124;2023-06-22T11:32:10;97381.97;;;30.48;44.26
39411;BME280;26579;43.238;23.124;2023-06-22T11:34:35;97410.47;;;30.66;44.18
39411;BME280;26579;43.238;23.124;2023-06-22T11:37:01;97404.38;;;30.71;46.78
39411;BME280;26579;43.238;23.124;2023-06-22T11:39:27;97411.19;;;30.44;49.15
39411;BME280;26579;43.238;23.124;2023-06-22T11:41:53;97407.31;;;30.52;51.71
39411;BME280;26579;43.238;23.124;2023-06-22T11:44:19;97408.19;;;30.41;50.42
39411;BME280;26579;43.238;23.124;2023-06-22T11:46:45;97410.81;;;30.24;51.33
39411;BME280;26579;43.238;23.124;2023-06-22T11:49:11;97407.50;;;30.05;51.03
39411;BME280;26579;43.238;23.124;2023-06-22T11:51:37;97411.50;;;29.91;53.80
39411;BME280;26579;43.238;23.124;2023-06-22T11:54:03;97412.63;;;29.95;56.12
39411;BME280;26579;43.238;23.124;2023-06-22T11:56:29;97408.25;;;29.77;55.03
39411;BME280;26579;43.238;23.124;2023-06-22T11:58:54;97406.06;;;29.62;56.04
39411;BME280;26579;43.238;23.124;2023-06-22T12:01:20;97396.03;;;29.46;56.53
39411;BME280;26579;43.238;23.124;2023-06-22T12:03:46;97409.91;;;29.54;57.34
39411;BME280;26579;43.238;23.124;2023-06-22T12:06:12;97406.53;;;29.71;56.78
39411;BME280;26579;43.238;23.124;2023-06-22T12:08:37;97405.31;;;29.78;56.49
39411;BME280;26579;43.238;23.124;2023-06-22T12:11:03;97398.88;;;29.91;58.52
39411;BME280;26579;43.238;23.124;2023-06-22T12:13:29;97384.84;;;30.01;56.66
39411;BME280;26579;43.238;23.124;2023-06-22T12:15:55;97400.41;;;30.16;57.43
39411;BME280;26579;43.238;23.124;2023-06-22T12:18:20;97391.88;;;29.90;55.56
39411;BME280;26579;43.238;23.124;2023-06-22T12:20:47;97386.75;;;29.89;56.66
39411;BME280;26579;43.238;23.124;2023-06-22T12:23:14;97379.63;;;29.94;56.04
39411;BME280;26579;43.238;23.124;2023-06-22T12:25:40;97381.13;;;30.02;56.70
39411;BME280;26579;43.238;23.124;2023-06-22T12:28:05;97379.03;;;29.92;54.69
39411;BME280;26579;43.238;23.124;2023-06-22T12:30:36;97359.16;;;29.76;55.44
39411;BME280;26579;43.238;23.124;2023-06-22T12:33:02;97366.34;;;29.88;56.91
39411;BME280;26579;43.238;23.124;2023-06-22T12:35:27;97370.84;;;29.99;57.78
39411;BME280;26579;43.238;23.124;2023-06-22T12:37:53;97382.41;;;29.99;56.98
39411;BME280;26579;43.238;23.124;2023-06-22T12:40:19;97384.72;;;29.96;56.93
39411;BME280;26579;43.238;23.124;2023-06-22T12:42:45;97384.03;;;30.00;56.74
39411;BME280;26579;43.238;23.124;2023-06-22T12:45:11;97388.59;;;30.00;56.86
39411;BME280;26579;43.238;23.124;2023-06-22T12:47:37;97384.84;;;30.01;58.27
39411;BME280;26579;43.238;23.124;2023-06-22T12:50:03;97382.16;;;30.01;57.86
39411;BME280;26579;43.238;23.124;2023-06-22T12:52:30;97380.81;;;29.87;58.21